Terminal Aerodrome Forecast
Issued by NWS Kansas City/Pleasant Hill, MO

Home | Current Version | Previous Version | Text Only | Print | Product List | Glossary On
Versions: 1 2 3 4 5 6 7 8 9 10 11 12 13 14 15 16 17 18 19 20 21 22 23 24 25
086
FTUS43 KEAX 250154 AAA
TAFMCI
TAF AMD
KMCI 250154Z 2502/2524 10007KT P6SM -SHRA VCTS BKN015CB
     FM250600 09006KT 5SM -SHRA OVC008
     FM250800 06006KT P6SM VCSH BKN008
     FM251800 35011KT P6SM OVC008=

USA.gov is the U.S. government's official web portal to all federal, state and local government web resources and services.